Time;durP1;ratioP1;P1;durP2;ratioP2;P2;SDS_P1;SDS_P2;PMS_P1;PMS_P2;Temp;Humidity;BMP_temperature;BMP_pressure;BME280_temperature;BME280_humidity;BME280_pressure;Samples;Min_cycle;Max_cycle;Signal;HPM_P1;HPM_P2
2022/10/20 00:00:18;;;;;;;;;;;;;;;15.52;81.82;101120.03;5035986;28;1027;-62
2022/10/20 00:02:43;;;;;;;;;;;;;;;15.52;81.61;101120.03;5035840;28;1221;-62
2022/10/20 00:05:08;;;;;;;;;;;;;;;15.51;81.89;101116.44;5035936;28;1028;-62
2022/10/20 00:07:33;;;;;;;;;;;;;;;15.51;82.04;101107.34;5035568;28;1902;-62
2022/10/20 00:09:58;;;;;;;;;;;;;;;15.52;81.86;101107.06;5035773;28;972;-60
2022/10/20 00:12:23;;;;;;;;;;;;;;;15.52;81.61;101101.53;5035751;28;1201;-62
2022/10/20 00:14:48;;;;;;;;;;;;;;;15.51;82.06;101093.56;5035721;28;857;-60
2022/10/20 00:17:14;;;;;;;;;;;;;;;15.51;81.53;101099.91;5035404;28;984;-61
2022/10/20 00:19:39;;;;;;;;;;;;;;;15.50;81.68;101101.00;5035616;28;786;-61
2022/10/20 00:22:04;;;;;;;;;;;;;;;15.50;82.29;101089.16;5035525;28;1138;-62
2022/10/20 00:24:29;;;;;;;;;;;;;;;15.49;81.60;101082.00;5035471;28;1016;-62
2022/10/20 00:26:54;;;;;;;;;;;;;;;15.49;81.65;101096.59;5035202;28;1965;-62
2022/10/20 00:29:19;;;;;;;;;;;;;;;15.49;81.71;101084.75;5035400;28;964;-62
2022/10/20 00:31:44;;;;;;;;;;;;;;;15.49;81.90;101079.22;5035339;28;1250;-61
2022/10/20 00:34:10;;;;;;;;;;;;;;;15.49;81.70;101079.22;5035263;28;968;-62
2022/10/20 00:36:35;;;;;;;;;;;;;;;15.48;81.99;101067.38;5034563;28;964;-61
2022/10/20 00:39:01;;;;;;;;;;;;;;;15.48;81.67;101077.63;5034857;28;988;-61
2022/10/20 00:41:27;;;;;;;;;;;;;;;15.48;81.65;101061.06;5035128;28;1220;-61
2022/10/20 00:43:55;;;;;;;;;;;;;;;15.47;81.78;101056.66;5035218;28;815;-62
2022/10/20 00:46:22;;;;;;;;;;;;;;;15.46;81.74;101058.59;5034783;28;1894;-62
2022/10/20 00:48:51;;;;;;;;;;;;;;;15.46;81.86;101055.84;5035042;28;909;-62
2022/10/20 00:51:18;;;;;;;;;;;;;;;15.47;81.86;101062.19;5034723;28;1303;-62
2022/10/20 00:53:45;;;;;;;;;;;;;;;15.47;81.51;101056.66;5034878;28;1039;-62
2022/10/20 00:56:10;;;;;;;;;;;;;;;15.46;81.63;101053.09;5034671;28;923;-62
2022/10/20 00:58:35;;;;;;;;;;;;;;;15.45;81.87;101059.72;5034909;28;865;-62
2022/10/20 01:01:01;;;;;;;;;;;;;;;15.44;82.05;101048.97;5034931;28;1283;-62
2022/10/20 01:03:38;;;;;;;;;;;;;;;15.44;81.85;101052.56;5034839;28;897;-61
2022/10/20 01:06:03;;;;;;;;;;;;;;;15.44;81.79;101052.56;5034384;28;1906;-61
2022/10/20 01:08:29;;;;;;;;;;;;;;;15.43;81.90;101048.16;5034747;28;964;-62
2022/10/20 01:11:03;;;;;;;;;;;;;;;15.43;81.55;101048.16;5034693;28;964;-60
2022/10/20 01:13:37;;;;;;;;;;;;;;;15.43;81.69;101042.63;5034693;28;1201;-61
2022/10/20 01:16:15;;;;;;;;;;;;;;;15.43;81.77;101037.13;5034314;28;960;-60
2022/10/20 01:18:45;;;;;;;;;;;;;;;15.43;81.86;101034.34;5034398;28;810;-62
2022/10/20 01:21:24;;;;;;;;;;;;;;;15.44;81.71;101026.91;5034582;28;1203;-62
2022/10/20 01:23:55;;;;;;;;;;;;;;;15.42;81.74;101015.34;5034444;28;1031;-62
2022/10/20 01:26:39;;;;;;;;;;;;;;;15.42;81.67;101024.44;5034108;28;1894;-61
2022/10/20 01:29:09;;;;;;;;;;;;;;;15.42;82.06;101020.84;5034253;28;960;-62
2022/10/20 01:31:51;;;;;;;;;;;;;;;15.41;81.50;101017.28;5034423;28;1324;-61
2022/10/20 01:34:19;;;;;;;;;;;;;;;15.41;81.81;101014.53;5034244;28;961;-61
2022/10/20 01:36:48;;;;;;;;;;;;;;;15.41;81.95;101011.75;5033913;28;985;-61
2022/10/20 01:39:20;;;;;;;;;;;;;;;15.41;81.82;101014.53;5033970;28;1834;-61
2022/10/20 01:41:51;;;;;;;;;;;;;;;15.41;81.68;101000.72;5033953;28;1303;-61
2022/10/20 01:44:18;;;;;;;;;;;;;;;15.40;81.80;100998.25;5034279;28;979;-60
2022/10/20 01:46:44;;;;;;;;;;;;;;;15.39;81.88;100997.47;5033642;28;1961;-61
2022/10/20 01:49:09;;;;;;;;;;;;;;;15.40;81.95;100996.31;5033870;28;983;-61
2022/10/20 01:51:34;;;;;;;;;;;;;;;15.39;81.68;100986.44;5033720;28;1225;-62
2022/10/20 01:54:00;;;;;;;;;;;;;;;15.40;82.00;100988.06;5033744;28;786;-62
2022/10/20 01:56:28;;;;;;;;;;;;;;;15.38;81.47;100979.28;5033510;28;969;-60
2022/10/20 01:59:05;;;;;;;;;;;;;;;15.39;81.74;100980.09;5033082;28;1025;-62
2022/10/20 02:02:00;;;;;;;;;;;;;;;15.38;81.94;100972.94;5033836;28;1177;-62
2022/10/20 02:04:42;;;;;;;;;;;;;;;15.38;81.88;100970.19;4979691;28;1059;-60
2022/10/20 02:07:11;;;;;;;;;;;;;;;15.38;82.01;100967.44;5033481;28;1959;-62
2022/10/20 02:09:42;;;;;;;;;;;;;;;15.36;81.81;100964.97;5032436;28;968;-62
2022/10/20 02:12:18;;;;;;;;;;;;;;;15.36;81.63;100947.59;5033541;28;1307;-62
2022/10/20 02:14:44;;;;;;;;;;;;;;;15.36;82.00;100936.56;5033535;28;968;-62
2022/10/20 02:17:11;;;;;;;;;;;;;;;15.35;81.78;100940.44;5033272;28;768;-62
2022/10/20 02:19:38;;;;;;;;;;;;;;;15.35;81.57;100934.91;5033640;28;827;-62
2022/10/20 02:22:05;;;;;;;;;;;;;;;15.34;81.32;100936.84;5033238;28;1658;-60
2022/10/20 02:24:35;;;;;;;;;;;;;;;15.33;81.83;100932.47;5033249;28;1384;-61
2022/10/20 02:27:02;;;;;;;;;;;;;;;15.33;81.81;100924.19;5033039;28;1902;-62
2022/10/20 02:29:29;;;;;;;;;;;;;;;15.33;81.79;100920.59;5033318;28;1079;-62
2022/10/20 02:31:54;;;;;;;;;;;;;;;15.32;81.60;100918.97;5033181;28;1221;-62
2022/10/20 02:34:20;;;;;;;;;;;;;;;15.31;81.98;100912.63;5033319;28;1035;-62
2022/10/20 02:36:45;;;;;;;;;;;;;;;15.31;81.38;100911.84;5032920;28;976;-61
2022/10/20 02:39:10;;;;;;;;;;;;;;;15.31;81.89;100914.59;5033141;28;834;-61
2022/10/20 02:41:36;;;;;;;;;;;;;;;15.30;81.54;100911.00;5033222;28;1225;-61
2022/10/20 02:44:02;;;;;;;;;;;;;;;15.29;81.58;100912.13;5033204;28;932;-62
2022/10/20 02:46:27;;;;;;;;;;;;;;;15.31;81.54;100917.34;5032764;28;1898;-62
2022/10/20 02:48:52;;;;;;;;;;;;;;;15.30;81.54;100908.25;5033112;28;996;-60
2022/10/20 02:51:17;;;;;;;;;;;;;;;15.28;81.58;100906.91;5032843;28;1233;-62
2022/10/20 02:53:43;;;;;;;;;;;;;;;15.29;81.65;100908.56;5033109;28;889;-62
2022/10/20 02:56:08;;;;;;;;;;;;;;;15.27;81.52;100900.56;5031129;28;1983;-57
2022/10/20 02:58:33;;;;;;;;;;;;;;;15.28;81.78;100893.13;5033088;28;1171;-58
2022/10/20 03:00:59;;;;;;;;;;;;;;;15.27;81.54;100897.81;5032955;28;1224;-59
2022/10/20 03:03:24;;;;;;;;;;;;;;;15.27;81.48;100897.81;5032969;28;818;-58
2022/10/20 03:05:49;;;;;;;;;;;;;;;15.28;81.69;100895.88;5032698;28;1894;-59
2022/10/20 03:08:14;;;;;;;;;;;;;;;15.26;81.66;100896.19;5032809;28;1000;-58
2022/10/20 03:10:40;;;;;;;;;;;;;;;15.26;81.73;100900.88;5033607;28;849;-59
2022/10/20 03:13:06;;;;;;;;;;;;;;;15.25;81.56;100890.97;5036934;28;1210;-58
2022/10/20 03:15:31;;;;;;;;;;;;;;;15.25;81.70;100894.53;5036786;28;964;-59
2022/10/20 03:17:56;;;;;;;;;;;;;;;15.24;81.55;100894.84;5036627;28;821;-58
2022/10/20 03:20:21;;;;;;;;;;;;;;;15.24;81.75;100889.31;5036739;28;932;-59
2022/10/20 03:22:46;;;;;;;;;;;;;;;15.23;81.86;100885.75;5036893;28;1650;-58
2022/10/20 03:25:12;;;;;;;;;;;;;;;15.23;81.77;100874.72;5036622;28;821;-57
2022/10/20 03:27:37;;;;;;;;;;;;;;;15.22;81.90;100886.88;5036359;28;1898;-58
2022/10/20 03:30:02;;;;;;;;;;;;;;;15.22;81.87;100892.41;5036604;28;798;-58
2022/10/20 03:32:27;;;;;;;;;;;;;;;15.22;81.48;100886.88;5036417;28;1202;-59
2022/10/20 03:34:52;;;;;;;;;;;;;;;15.22;81.50;100883.31;5035332;28;928;-58
2022/10/20 03:37:17;;;;;;;;;;;;;;;15.21;81.87;100878.91;5036142;28;1072;-59
2022/10/20 03:39:43;;;;;;;;;;;;;;;15.20;81.71;100872.56;5036447;28;782;-58
2022/10/20 03:42:08;;;;;;;;;;;;;;;15.20;81.62;100861.53;5036541;28;1253;-59
2022/10/20 03:44:33;;;;;;;;;;;;;;;15.19;81.97;100857.16;5036377;28;1043;-57
2022/10/20 03:46:59;;;;;;;;;;;;;;;15.19;81.75;100856.31;5036066;28;1898;-59
2022/10/20 03:49:24;;;;;;;;;;;;;;;15.19;81.56;100848.88;5036238;28;855;-59
2022/10/20 03:51:49;;;;;;;;;;;;;;;15.18;81.55;100841.72;5036054;28;1316;-57
2022/10/20 03:54:14;;;;;;;;;;;;;;;15.18;81.70;100841.72;5036156;28;857;-57
2022/10/20 03:56:39;;;;;;;;;;;;;;;15.19;81.71;100845.28;5035904;28;1067;-58
2022/10/20 03:59:05;;;;;;;;;;;;;;;15.18;82.04;100829.88;5036127;28;1024;-57
2022/10/20 04:01:31;;;;;;;;;;;;;;;15.19;81.49;100837.03;5036085;28;1281;-60
2022/10/20 04:03:56;;;;;;;;;;;;;;;15.18;81.93;100821.59;5036078;28;957;-60
2022/10/20 04:06:21;;;;;;;;;;;;;;;15.17;81.66;100823.53;5035640;28;1902;-58
2022/10/20 04:08:46;;;;;;;;;;;;;;;15.17;81.85;100822.72;5035549;28;846;-58
2022/10/20 04:11:11;;;;;;;;;;;;;;;15.15;81.93;100818.31;5035988;28;1173;-58
2022/10/20 04:13:37;;;;;;;;;;;;;;;15.12;81.96;100815.38;5024600;28;1457;-59
2022/10/20 04:16:02;;;;;;;;;;;;;;;15.10;81.92;100814.84;5015665;28;1126;-58
2022/10/20 04:18:27;;;;;;;;;;;;;;;15.07;81.73;100816.25;5021299;28;1903;-58
2022/10/20 04:20:52;;;;;;;;;;;;;;;15.07;82.15;100815.44;5035701;28;984;-60
2022/10/20 04:23:17;;;;;;;;;;;;;;;15.04;82.14;100807.78;5035162;28;1263;-58
2022/10/20 04:25:47;;;;;;;;;;;;;;;15.03;82.05;100806.97;5035390;28;1961;-62
2022/10/20 04:28:13;;;;;;;;;;;;;;;15.03;81.59;100804.22;5035532;28;885;-58
2022/10/20 04:30:38;;;;;;;;;;;;;;;15.02;82.41;100807.28;5035480;28;866;-58
2022/10/20 04:33:03;;;;;;;;;;;;;;;15.01;82.31;100808.38;5035403;28;1178;-57
2022/10/20 04:35:29;;;;;;;;;;;;;;;15.01;81.94;100805.63;5035416;28;1023;-59
2022/10/20 04:37:54;;;;;;;;;;;;;;;14.99;81.97;100797.66;5035098;28;841;-58
2022/10/20 04:40:19;;;;;;;;;;;;;;;14.98;81.98;100796.00;5035358;28;853;-61
2022/10/20 04:42:44;;;;;;;;;;;;;;;14.97;82.59;100802.66;5035336;28;1280;-58
2022/10/20 04:45:09;;;;;;;;;;;;;;;14.97;81.80;100797.13;5035198;28;988;-59
2022/10/20 04:47:36;;;;;;;;;;;;;;;14.97;81.93;100796.34;5034903;28;1969;-58
2022/10/20 04:50:01;;;;;;;;;;;;;;;14.96;82.73;100802.97;5035126;28;861;-60
2022/10/20 04:52:27;;;;;;;;;;;;;;;14.95;81.97;100801.34;5034962;28;1327;-58
2022/10/20 04:54:52;;;;;;;;;;;;;;;14.95;81.99;100788.38;5034711;28;1042;-58
2022/10/20 04:57:17;;;;;;;;;;;;;;;14.95;81.89;100784.78;5034481;28;1030;-60
2022/10/20 04:59:42;;;;;;;;;;;;;;;14.94;82.06;100785.91;5035218;28;766;-58
2022/10/20 05:02:10;;;;;;;;;;;;;;;14.92;82.11;100780.69;5034790;28;1211;-59
2022/10/20 05:04:35;;;;;;;;;;;;;;;14.94;82.58;100772.13;5034864;28;903;-58
2022/10/20 05:07:00;;;;;;;;;;;;;;;14.94;82.11;100763.84;5034456;28;1971;-59
2022/10/20 05:09:25;;;;;;;;;;;;;;;14.96;82.23;100778.97;5034792;28;988;-58
2022/10/20 05:11:52;;;;;;;;;;;;;;;14.97;82.40;100766.81;5034538;28;1272;-58
2022/10/20 05:14:17;;;;;;;;;;;;;;;14.98;82.16;100768.44;5034538;28;833;-58
2022/10/20 05:16:42;;;;;;;;;;;;;;;14.99;81.62;100758.25;5034510;28;997;-58
2022/10/20 05:19:08;;;;;;;;;;;;;;;14.98;81.92;100754.66;5033213;28;1044;-60
2022/10/20 05:21:33;;;;;;;;;;;;;;;14.98;81.87;100759.34;5033145;28;1200;-58
2022/10/20 05:23:59;;;;;;;;;;;;;;;14.98;81.78;100756.59;5034344;28;762;-60
2022/10/20 05:26:25;;;;;;;;;;;;;;;14.97;82.49;100743.97;5034161;28;1963;-58
2022/10/20 05:28:51;;;;;;;;;;;;;;;14.97;81.79;100741.22;5034441;28;854;-58
2022/10/20 05:31:17;;;;;;;;;;;;;;;14.96;81.75;100739.56;5034332;28;1217;-58
2022/10/20 05:33:43;;;;;;;;;;;;;;;14.97;81.97;100735.69;5033564;28;849;-58
2022/10/20 05:36:09;;;;;;;;;;;;;;;14.97;82.10;100727.44;5033925;28;786;-59
2022/10/20 05:38:35;;;;;;;;;;;;;;;14.98;82.17;100726.28;5034222;28;968;-58
2022/10/20 05:41:11;;;;;;;;;;;;;;;14.96;82.13;100726.63;5033677;28;1489;-59
2022/10/20 05:43:37;;;;;;;;;;;;;;;14.97;82.20;100727.44;5018081;28;1178;-58
2022/10/20 05:46:02;;;;;;;;;;;;;;;14.97;81.72;100724.69;5013960;28;1898;-58
2022/10/20 05:48:27;;;;;;;;;;;;;;;14.97;82.32;100733.72;5014266;28;996;-58
2022/10/20 05:50:52;;;;;;;;;;;;;;;14.96;81.78;100725.78;5014074;28;861;-58
2022/10/20 05:53:18;;;;;;;;;;;;;;;14.96;82.33;100725.78;5014133;28;1177;-59
2022/10/20 05:55:43;;;;;;;;;;;;;;;14.96;81.49;100720.28;5014077;28;870;-59
2022/10/20 05:58:08;;;;;;;;;;;;;;;14.95;81.99;100716.72;5014077;28;1217;-58
2022/10/20 06:00:40;;;;;;;;;;;;;;;14.96;81.92;100726.63;5014106;28;700;-59
2022/10/20 06:03:05;;;;;;;;;;;;;;;14.96;82.19;100718.34;5013812;28;1206;-59
2022/10/20 06:05:30;;;;;;;;;;;;;;;14.95;82.21;100724.97;5013935;28;965;-59
2022/10/20 06:07:56;;;;;;;;;;;;;;;14.95;81.59;100730.50;5013491;28;1899;-58
2022/10/20 06:10:21;;;;;;;;;;;;;;;14.96;81.95;100723.03;5014014;28;1016;-58
2022/10/20 06:12:46;;;;;;;;;;;;;;;14.93;82.22;100715.38;5013802;28;1251;-58
2022/10/20 06:15:11;;;;;;;;;;;;;;;14.93;81.56;100718.94;5013846;28;819;-60
2022/10/20 06:17:36;;;;;;;;;;;;;;;14.94;82.31;100714.25;5013451;28;901;-59
2022/10/20 06:20:02;;;;;;;;;;;;;;;14.92;81.55;100711.78;5013795;28;882;-59
2022/10/20 06:22:27;;;;;;;;;;;;;;;14.94;81.67;100708.72;5013718;28;1555;-60
2022/10/20 06:24:52;;;;;;;;;;;;;;;14.93;81.67;100707.09;5013596;28;996;-59
2022/10/20 06:27:17;;;;;;;;;;;;;;;14.93;81.59;100709.84;5013312;28;1887;-60
2022/10/20 06:29:42;;;;;;;;;;;;;;;14.92;81.93;100706.28;5013671;28;795;-58
2022/10/20 06:32:08;;;;;;;;;;;;;;;14.93;82.02;100701.59;5013523;28;1201;-61
2022/10/20 06:34:33;;;;;;;;;;;;;;;14.92;81.79;100697.19;5013459;28;1019;-58
2022/10/20 06:36:58;;;;;;;;;;;;;;;14.91;81.77;100696.38;5013388;28;841;-59
2022/10/20 06:39:24;;;;;;;;;;;;;;;14.91;81.84;100684.53;5012248;28;862;-59
2022/10/20 06:41:50;;;;;;;;;;;;;;;14.91;81.44;100685.34;5013500;28;1304;-58
2022/10/20 06:44:19;;;;;;;;;;;;;;;14.92;81.80;100686.16;5013509;28;1785;-59
2022/10/20 06:46:44;;;;;;;;;;;;;;;14.91;82.32;100677.06;5012934;28;1953;-63
2022/10/20 06:49:10;;;;;;;;;;;;;;;14.91;81.58;100676.25;5013501;28;929;-59
2022/10/20 06:51:36;;;;;;;;;;;;;;;14.92;81.64;100686.16;5013224;28;1240;-59
2022/10/20 06:54:01;;;;;;;;;;;;;;;14.92;82.00;100683.41;5013412;28;809;-59
2022/10/20 06:56:27;;;;;;;;;;;;;;;14.91;82.14;100677.06;5013119;28;798;-59
2022/10/20 06:58:53;;;;;;;;;;;;;;;14.91;81.66;100676.25;5013311;28;798;-60
2022/10/20 07:01:18;;;;;;;;;;;;;;;14.91;82.00;100671.56;5013019;28;1716;-59
2022/10/20 07:03:45;;;;;;;;;;;;;;;14.91;81.98;100673.50;5013463;28;783;-58
2022/10/20 07:06:13;;;;;;;;;;;;;;;14.90;81.25;100680.94;5012848;28;1946;-58
2022/10/20 07:08:38;;;;;;;;;;;;;;;14.91;81.98;100681.78;5013276;28;992;-58
2022/10/20 07:11:05;;;;;;;;;;;;;;;14.90;81.33;100682.88;5013156;28;1142;-59
2022/10/20 07:13:30;;;;;;;;;;;;;;;14.89;81.87;100682.06;5013316;28;889;-58
2022/10/20 07:15:56;;;;;;;;;;;;;;;14.89;81.92;100682.06;5012908;28;782;-58
2022/10/20 07:18:22;;;;;;;;;;;;;;;14.90;82.08;100669.09;5013234;28;817;-59
2022/10/20 07:20:47;;;;;;;;;;;;;;;14.90;81.08;100664.41;5013104;28;793;-58
2022/10/20 07:23:13;;;;;;;;;;;;;;;14.90;82.03;100669.09;5013219;28;1281;-61
2022/10/20 07:25:38;;;;;;;;;;;;;;;14.90;81.26;100667.16;5013101;28;893;-59
2022/10/20 07:28:03;;;;;;;;;;;;;;;14.90;81.96;100666.34;5012642;28;1898;-62
2022/10/20 07:30:28;;;;;;;;;;;;;;;14.91;81.61;100665.22;5013033;28;814;-59
2022/10/20 07:32:53;;;;;;;;;;;;;;;14.91;81.48;100670.75;5012941;28;1189;-59
2022/10/20 07:35:18;;;;;;;;;;;;;;;14.91;81.32;100681.78;5012921;28;977;-59
2022/10/20 07:37:44;;;;;;;;;;;;;;;14.91;81.50;100684.53;5011831;28;1574;-58
2022/10/20 07:40:09;;;;;;;;;;;;;;;14.91;81.27;100670.75;5012913;28;976;-58
2022/10/20 07:42:34;;;;;;;;;;;;;;;14.91;81.83;100684.53;5012863;28;1311;-58
2022/10/20 07:44:59;;;;;;;;;;;;;;;14.90;81.38;100680.94;5012819;28;1016;-59
2022/10/20 07:47:25;;;;;;;;;;;;;;;14.90;81.21;100675.44;5012661;28;1914;-58
2022/10/20 07:49:50;;;;;;;;;;;;;;;14.91;81.32;100671.56;5012947;28;838;-59
2022/10/20 07:52:15;;;;;;;;;;;;;;;14.91;81.43;100677.06;5012719;28;1255;-58
2022/10/20 07:54:40;;;;;;;;;;;;;;;14.91;81.77;100674.31;5012798;28;861;-58
2022/10/20 07:57:05;;;;;;;;;;;;;;;14.92;81.29;100675.13;5013522;28;944;-59
2022/10/20 07:59:30;;;;;;;;;;;;;;;14.90;81.22;100669.94;5016324;28;885;-59
2022/10/20 08:01:56;;;;;;;;;;;;;;;14.91;81.68;100666.06;5016196;28;1322;-60
2022/10/20 08:04:21;;;;;;;;;;;;;;;14.92;81.91;100669.63;5016226;28;921;-59
2022/10/20 08:06:46;;;;;;;;;;;;;;;14.91;81.03;100663.28;5015872;28;1898;-60
2022/10/20 08:09:11;;;;;;;;;;;;;;;14.91;81.39;100670.75;5016268;28;882;-58
2022/10/20 08:11:36;;;;;;;;;;;;;;;14.92;81.38;100661.34;5015978;28;1301;-59
2022/10/20 08:14:02;;;;;;;;;;;;;;;14.91;81.37;100663.28;5016132;28;851;-58
2022/10/20 08:16:27;;;;;;;;;;;;;;;14.92;81.13;100661.34;5015653;28;807;-58
2022/10/20 08:18:52;;;;;;;;;;;;;;;14.91;81.51;100652.28;5015954;28;818;-58
2022/10/20 08:21:19;;;;;;;;;;;;;;;14.91;81.32;100652.28;5015893;28;1599;-58
2022/10/20 08:23:45;;;;;;;;;;;;;;;14.92;81.19;100640.13;5015848;28;843;-59
2022/10/20 08:26:11;;;;;;;;;;;;;;;14.91;81.29;100654.22;5015529;28;1968;-58
2022/10/20 08:28:36;;;;;;;;;;;;;;;14.93;81.70;100643.69;5015763;28;826;-58
2022/10/20 08:31:05;;;;;;;;;;;;;;;14.92;81.48;100639.31;5015765;28;1225;-58
2022/10/20 08:33:30;;;;;;;;;;;;;;;14.92;81.77;100642.88;5015734;28;1210;-58
2022/10/20 08:35:59;;;;;;;;;;;;;;;14.95;81.49;100639.53;5015447;28;913;-58
2022/10/20 08:38:24;;;;;;;;;;;;;;;14.97;81.47;100642.78;5015713;28;810;-59
2022/10/20 08:40:49;;;;;;;;;;;;;;;15.00;81.73;100647.69;5015635;28;913;-58
2022/10/20 08:43:17;;;;;;;;;;;;;;;15.03;81.59;100640.75;5015507;28;1260;-59
2022/10/20 08:45:42;;;;;;;;;;;;;;;15.02;81.34;100634.41;5015432;28;799;-60
2022/10/20 08:48:11;;;;;;;;;;;;;;;15.02;81.75;100626.16;5015112;28;1959;-60
2022/10/20 08:50:41;;;;;;;;;;;;;;;15.03;81.79;100636.06;5015296;28;937;-58
2022/10/20 08:53:09;;;;;;;;;;;;;;;15.03;81.27;100626.97;5015290;28;1165;-58
2022/10/20 08:55:34;;;;;;;;;;;;;;;15.03;81.70;100621.44;5015165;28;1071;-58
2022/10/20 08:58:19;;;;;;;;;;;;;;;15.04;81.30;100620.34;5032658;28;1644;-60
2022/10/20 09:00:45;;;;;;;;;;;;;;;15.03;81.25;100615.94;5034645;28;1148;-58
2022/10/20 09:03:14;;;;;;;;;;;;;;;15.03;81.81;100608.50;5034838;28;1197;-58
2022/10/20 09:05:41;;;;;;;;;;;;;;;15.04;81.29;100612.06;5034741;28;794;-59
2022/10/20 09:08:06;;;;;;;;;;;;;;;15.03;81.52;100602.16;5033858;28;1923;-58
2022/10/20 09:10:39;;;;;;;;;;;;;;;15.04;81.19;100603.78;5034247;28;814;-59
2022/10/20 09:13:19;;;;;;;;;;;;;;;15.04;81.38;100607.38;5022068;28;1304;-59
2022/10/20 09:15:45;;;;;;;;;;;;;;;15.04;81.73;100595.53;5014597;28;910;-62
2022/10/20 09:18:12;;;;;;;;;;;;;;;15.05;81.28;100588.88;5014679;28;988;-59
2022/10/20 09:20:45;;;;;;;;;;;;;;;15.04;81.30;100596.34;5016491;28;1574;-60
2022/10/20 09:23:18;;;;;;;;;;;;;;;15.04;81.81;100581.75;5034461;28;1606;-59
2022/10/20 09:25:44;;;;;;;;;;;;;;;15.06;81.18;100587.72;5034366;28;983;-59
2022/10/20 09:28:36;;;;;;;;;;;;;;;15.06;81.62;100587.72;5034373;28;1894;-58
2022/10/20 09:31:01;;;;;;;;;;;;;;;15.06;81.63;100587.72;5034045;28;1740;-58
2022/10/20 09:33:26;;;;;;;;;;;;;;;15.06;81.70;100583.03;5034215;28;921;-60
2022/10/20 09:35:51;;;;;;;;;;;;;;;15.07;81.82;100575.59;5034213;28;829;-58
2022/10/20 09:38:23;;;;;;;;;;;;;;;15.07;81.14;100573.66;5034177;28;992;-59
2022/10/20 09:41:09;;;;;;;;;;;;;;;15.08;81.63;100568.94;5034358;28;888;-59
2022/10/20 09:43:36;;;;;;;;;;;;;;;15.08;81.42;100557.94;5034107;28;921;-59
2022/10/20 09:46:06;;;;;;;;;;;;;;;15.08;81.64;100552.41;5033748;28;1964;-58
2022/10/20 09:48:36;;;;;;;;;;;;;;;15.08;81.38;100550.47;5033857;28;1008;-58
2022/10/20 09:51:03;;;;;;;;;;;;;;;15.08;81.49;100538.63;5033989;28;1166;-58
2022/10/20 09:53:48;;;;;;;;;;;;;;;15.08;81.39;100533.94;5033942;28;999;-60
2022/10/20 09:56:21;;;;;;;;;;;;;;;15.09;81.68;100534.75;5033646;28;834;-59
2022/10/20 09:58:46;;;;;;;;;;;;;;;15.08;81.16;100528.41;5033991;28;894;-58
2022/10/20 10:01:13;;;;;;;;;;;;;;;15.09;81.58;100523.72;5033776;28;1217;-59
2022/10/20 10:03:43;;;;;;;;;;;;;;;15.10;81.48;100528.13;5033822;28;1043;-58
2022/10/20 10:06:19;;;;;;;;;;;;;;;15.10;81.34;100528.13;5033383;28;1898;-58
2022/10/20 10:08:45;;;;;;;;;;;;;;;15.11;81.42;100525.06;5033623;28;1016;-58
2022/10/20 10:11:14;;;;;;;;;;;;;;;15.11;81.30;100508.50;5033508;28;1276;-59
2022/10/20 10:13:41;;;;;;;;;;;;;;;15.10;81.03;100497.78;5033676;28;881;-59
2022/10/20 10:16:08;;;;;;;;;;;;;;;15.10;81.11;100500.53;5033245;28;1087;-58
2022/10/20 10:18:34;;;;;;;;;;;;;;;15.09;81.11;100488.69;5033605;28;857;-59
2022/10/20 10:21:10;;;;;;;;;;;;;;;15.11;81.61;100488.41;5033031;28;1291;-59
2022/10/20 10:23:39;;;;;;;;;;;;;;;15.12;81.49;100492.78;5033546;28;1043;-58
2022/10/20 10:26:24;;;;;;;;;;;;;;;15.11;80.96;100482.88;5033256;28;1894;-58
2022/10/20 10:28:56;;;;;;;;;;;;;;;15.11;81.44;100475.44;5019371;28;2389;-59
2022/10/20 10:31:22;;;;;;;;;;;;;;;15.12;81.22;100477.06;5013599;28;1161;-59
2022/10/20 10:34:05;;;;;;;;;;;;;;;15.09;81.08;100483.19;5032584;28;885;-58
2022/10/20 10:36:34;;;;;;;;;;;;;;;15.10;81.04;100482.06;5033091;28;889;-59
2022/10/20 10:39:00;;;;;;;;;;;;;;;15.11;81.45;100483.69;5033259;28;821;-60
2022/10/20 10:41:34;;;;;;;;;;;;;;;15.12;80.94;100468.78;5033245;28;1229;-58
2022/10/20 10:44:12;;;;;;;;;;;;;;;15.13;81.54;100475.94;5033118;28;794;-59
2022/10/20 10:46:54;;;;;;;;;;;;;;;15.14;81.47;100468.47;5032789;28;1894;-61
2022/10/20 10:49:29;;;;;;;;;;;;;;;15.15;81.67;100467.34;5033130;28;1027;-58
2022/10/20 10:51:54;;;;;;;;;;;;;;;15.16;81.52;100466.22;5033002;28;1245;-58
2022/10/20 10:54:29;;;;;;;;;;;;;;;15.17;81.33;100456.00;5033058;28;813;-58
2022/10/20 10:57:09;;;;;;;;;;;;;;;15.18;81.63;100449.34;5032680;28;1004;-58
2022/10/20 10:59:35;;;;;;;;;;;;;;;15.17;81.62;100451.28;5033057;28;928;-60
2022/10/20 11:02:28;;;;;;;;;;;;;;;15.04;80.41;100455.75;5032995;28;1220;-58
2022/10/20 11:05:03;;;;;;;;;;;;;;;15.01;80.53;100455.53;5032968;28;1001;-58
2022/10/20 11:07:43;;;;;;;;;;;;;;;15.00;80.02;100451.16;5032672;28;1960;-59
2022/10/20 11:10:17;;;;;;;;;;;;;;;14.97;79.29;100447.06;5032897;28;1039;-58
2022/10/20 11:12:48;;;;;;;;;;;;;;;14.97;79.70;100438.00;5032977;28;1225;-58
2022/10/20 11:15:15;;;;;;;;;;;;;;;14.96;79.27;100441.91;5032811;28;972;-59
2022/10/20 11:17:51;;;;;;;;;;;;;;;14.97;79.69;100429.75;5032601;28;802;-59
2022/10/20 11:20:25;;;;;;;;;;;;;;;14.97;79.38;100430.53;5032925;28;909;-58
2022/10/20 11:23:09;;;;;;;;;;;;;;;14.97;78.78;100419.50;5032740;28;1231;-59
2022/10/20 11:25:43;;;;;;;;;;;;;;;14.97;79.26;100425.00;5031564;28;1251;-58
2022/10/20 11:28:27;;;;;;;;;;;;;;;14.97;79.07;100404.94;5032523;28;1890;-58
2022/10/20 11:30:54;;;;;;;;;;;;;;;14.98;79.09;100412.06;5032972;28;862;-58
2022/10/20 11:33:21;;;;;;;;;;;;;;;14.94;78.95;100413.81;5035632;28;1181;-59
2022/10/20 11:35:57;;;;;;;;;;;;;;;14.95;79.34;100418.22;5036525;28;821;-58
2022/10/20 11:38:30;;;;;;;;;;;;;;;14.94;79.32;100422.09;5036548;28;846;-58
2022/10/20 11:41:00;;;;;;;;;;;;;;;14.92;78.74;100411.38;5036528;28;907;-60
2022/10/20 11:43:31;;;;;;;;;;;;;;;14.95;79.41;100409.94;5036280;28;897;-58
2022/10/20 11:46:01;;;;;;;;;;;;;;;14.96;78.73;100406.06;5036116;28;1965;-59
2022/10/20 11:48:39;;;;;;;;;;;;;;;14.94;79.19;100402.78;5036287;28;1000;-58
2022/10/20 11:51:04;;;;;;;;;;;;;;;14.98;78.63;100401.84;5036082;28;1169;-58
2022/10/20 11:53:35;;;;;;;;;;;;;;;15.00;78.74;100396.03;5036437;28;834;-58
2022/10/20 11:56:12;;;;;;;;;;;;;;;14.98;78.84;100401.84;5035989;28;1016;-59
2022/10/20 11:58:52;;;;;;;;;;;;;;;14.97;78.84;100405.72;5036151;28;1000;-58
2022/10/20 12:01:17;;;;;;;;;;;;;;;14.95;78.58;100396.16;5036019;28;1289;-60
2022/10/20 12:03:55;;;;;;;;;;;;;;;14.95;79.07;100407.19;5035990;28;1027;-58
2022/10/20 12:06:38;;;;;;;;;;;;;;;14.95;78.63;100396.16;5035550;28;1909;-59
2022/10/20 12:09:13;;;;;;;;;;;;;;;14.95;79.08;100405.25;5035982;28;956;-61
2022/10/20 12:11:47;;;;;;;;;;;;;;;14.96;78.65;100397.78;5032542;28;1476;-58
2022/10/20 12:14:17;;;;;;;;;;;;;;;14.97;78.62;100400.22;5035863;28;1016;-60
2022/10/20 12:16:57;;;;;;;;;;;;;;;15.00;78.68;100398.78;5035619;28;801;-58
2022/10/20 12:19:23;;;;;;;;;;;;;;;15.02;79.03;100394.59;5035851;28;900;-58
2022/10/20 12:21:59;;;;;;;;;;;;;;;15.02;78.68;100389.09;5035680;28;1221;-59
2022/10/20 12:24:39;;;;;;;;;;;;;;;15.05;78.81;100391.22;5035720;28;984;-59
2022/10/20 12:27:05;;;;;;;;;;;;;;;15.05;78.89;100398.69;5035122;28;1964;-58
2022/10/20 12:29:30;;;;;;;;;;;;;;;15.10;79.04;100393.03;5035730;28;896;-58
2022/10/20 12:32:20;;;;;;;;;;;;;;;15.21;80.89;100399.13;5035466;28;1297;-58
2022/10/20 12:34:45;;;;;;;;;;;;;;;15.22;79.80;100390.53;5030110;28;1388;-59
2022/10/20 12:37:16;;;;;;;;;;;;;;;15.22;80.62;100393.28;5035154;28;830;-60
2022/10/20 12:39:42;;;;;;;;;;;;;;;15.20;79.95;100400.25;5035489;28;889;-58
2022/10/20 12:42:17;;;;;;;;;;;;;;;15.20;80.92;100403.81;5035220;28;1213;-59
2022/10/20 12:44:43;;;;;;;;;;;;;;;15.21;81.17;100404.63;5035085;28;1032;-58
2022/10/20 12:47:09;;;;;;;;;;;;;;;15.19;81.04;100388.38;5034935;28;1901;-59
2022/10/20 12:49:48;;;;;;;;;;;;;;;15.20;80.93;100390.03;5035246;28;1059;-58
2022/10/20 12:52:19;;;;;;;;;;;;;;;15.19;81.01;100395.84;5035013;28;1169;-58
2022/10/20 12:54:45;;;;;;;;;;;;;;;15.19;80.85;100388.38;5033848;28;996;-58